createdAt,value
2022-10-20T00:00:34.519Z,14.55
2022-10-20T00:02:06.148Z,14.54
2022-10-20T00:03:38.007Z,14.55
2022-10-20T00:05:09.526Z,14.57
2022-10-20T00:06:41.076Z,14.56
2022-10-20T00:08:12.610Z,14.56
2022-10-20T00:09:44.154Z,14.54
2022-10-20T00:11:16.436Z,14.53
2022-10-20T00:12:48.064Z,14.52
2022-10-20T00:14:19.560Z,14.51
2022-10-20T00:15:51.735Z,14.47
2022-10-20T00:17:23.354Z,14.48
2022-10-20T00:18:55.481Z,14.48
2022-10-20T00:20:27.230Z,14.46
2022-10-20T00:21:59.113Z,14.42
2022-10-20T00:23:30.579Z,14.43
2022-10-20T00:25:02.037Z,14.41
2022-10-20T00:26:34.122Z,14.36
2022-10-20T00:28:05.721Z,14.35
2022-10-20T00:29:37.280Z,14.33
2022-10-20T00:31:08.814Z,14.32
2022-10-20T00:32:40.302Z,14.38
2022-10-20T00:34:11.896Z,14.40
2022-10-20T00:35:43.762Z,14.39
2022-10-20T00:37:15.810Z,14.38
2022-10-20T00:38:47.413Z,14.38
2022-10-20T00:40:18.930Z,14.37
2022-10-20T00:41:50.522Z,14.36
2022-10-20T00:43:22.307Z,14.36
2022-10-20T00:44:55.147Z,14.34
2022-10-20T00:46:33.300Z,14.33
2022-10-20T00:48:09.222Z,14.32
2022-10-20T00:49:41.295Z,14.31
2022-10-20T00:51:13.175Z,14.30
2022-10-20T00:52:44.791Z,14.29
2022-10-20T00:54:17.057Z,14.26
2022-10-20T00:55:49.282Z,14.26
2022-10-20T00:57:20.988Z,14.25
2022-10-20T00:58:52.487Z,14.19
2022-10-20T01:00:24.682Z,14.14
2022-10-20T01:01:56.678Z,14.09
2022-10-20T01:03:29.407Z,14.11
2022-10-20T01:05:00.924Z,14.08
2022-10-20T01:06:32.742Z,14.10
2022-10-20T01:08:04.847Z,14.09
2022-10-20T01:09:36.964Z,14.10
2022-10-20T01:11:18.029Z,14.10
2022-10-20T01:12:53.113Z,14.10
2022-10-20T01:14:27.727Z,14.09
2022-10-20T01:15:59.326Z,14.14
2022-10-20T01:17:30.925Z,14.15
2022-10-20T01:19:28.523Z,14.16
2022-10-20T01:21:05.875Z,14.15
2022-10-20T01:22:37.955Z,14.13
2022-10-20T01:24:12.051Z,14.14
2022-10-20T01:25:55.920Z,14.14
2022-10-20T01:27:28.854Z,14.13
2022-10-20T01:29:00.412Z,14.10
2022-10-20T01:30:32.912Z,14.06
2022-10-20T01:32:04.358Z,14.05
2022-10-20T01:33:41.762Z,14.04
2022-10-20T01:35:19.499Z,14.02
2022-10-20T01:37:08.432Z,13.97
2022-10-20T01:38:42.189Z,13.98
2022-10-20T01:40:26.786Z,13.98
2022-10-20T01:42:03.671Z,13.95
2022-10-20T01:43:36.192Z,13.94
2022-10-20T01:45:08.101Z,13.92
2022-10-20T01:46:40.078Z,13.91
2022-10-20T01:48:12.146Z,13.89
2022-10-20T01:49:44.107Z,13.92
2022-10-20T01:51:15.716Z,13.91
2022-10-20T01:52:47.482Z,13.90
2022-10-20T01:54:26.300Z,13.91
2022-10-20T01:55:58.156Z,13.93
2022-10-20T01:57:37.816Z,13.92
2022-10-20T01:59:19.268Z,13.95
2022-10-20T02:00:51.910Z,13.97
2022-10-20T02:02:23.641Z,13.96
2022-10-20T02:03:56.414Z,13.93
2022-10-20T02:05:36.595Z,13.88
2022-10-20T02:07:09.290Z,13.84
2022-10-20T02:08:44.860Z,13.81
2022-10-20T02:10:16.448Z,13.80
2022-10-20T02:11:59.978Z,13.80
2022-10-20T02:13:32.018Z,13.79
2022-10-20T02:15:04.263Z,13.76
2022-10-20T02:16:55.802Z,13.73
2022-10-20T02:18:28.230Z,13.70
2022-10-20T02:19:59.665Z,13.67
2022-10-20T02:21:31.526Z,13.63
2022-10-20T02:23:03.256Z,13.60
2022-10-20T02:24:36.001Z,13.54
2022-10-20T02:26:08.038Z,13.48
2022-10-20T02:27:40.075Z,13.47
2022-10-20T02:29:15.453Z,13.40
2022-10-20T02:30:47.031Z,13.37
2022-10-20T02:32:18.580Z,13.32
2022-10-20T02:33:50.608Z,13.30
2022-10-20T02:35:22.845Z,13.27
2022-10-20T02:36:58.340Z,13.23
2022-10-20T02:38:29.992Z,13.27
2022-10-20T02:40:01.732Z,13.24
2022-10-20T02:41:33.384Z,13.20
2022-10-20T02:43:04.959Z,13.17
2022-10-20T02:44:36.514Z,13.14
2022-10-20T02:46:08.610Z,13.12
2022-10-20T02:47:40.384Z,13.12
2022-10-20T02:49:12.342Z,13.14
2022-10-20T02:50:44.358Z,13.16
2022-10-20T02:52:15.944Z,13.18
2022-10-20T02:53:47.553Z,13.19
2022-10-20T02:56:55.841Z,13.29
2022-10-20T02:58:27.397Z,13.30
2022-10-20T02:59:58.963Z,13.30
2022-10-20T03:01:30.564Z,13.29
2022-10-20T03:03:02.240Z,13.29
2022-10-20T03:04:34.420Z,13.29
2022-10-20T03:06:09.805Z,13.29
2022-10-20T03:07:41.374Z,13.30
2022-10-20T03:09:13.030Z,13.30
2022-10-20T03:10:44.675Z,13.30
2022-10-20T03:12:16.335Z,13.32
2022-10-20T03:13:47.893Z,13.33
2022-10-20T03:15:19.693Z,13.31
2022-10-20T03:16:51.255Z,13.34
2022-10-20T03:18:22.745Z,13.37
2022-10-20T03:19:54.529Z,13.38
2022-10-20T03:21:26.117Z,13.38
2022-10-20T03:22:57.800Z,13.38
2022-10-20T03:24:29.274Z,13.35
2022-10-20T03:26:01.564Z,13.34
2022-10-20T03:27:33.192Z,13.32
2022-10-20T03:29:05.375Z,13.32
2022-10-20T03:30:36.982Z,13.33
2022-10-20T03:32:08.468Z,13.33
2022-10-20T03:33:39.945Z,13.30
2022-10-20T03:35:11.971Z,13.25
2022-10-20T03:36:43.494Z,13.21
2022-10-20T03:38:15.009Z,13.21
2022-10-20T03:39:46.530Z,13.25
2022-10-20T03:41:18.113Z,13.24
2022-10-20T03:42:49.962Z,13.19
2022-10-20T03:44:21.472Z,13.13
2022-10-20T03:46:01.116Z,13.08
2022-10-20T03:47:32.697Z,13.01
2022-10-20T03:49:04.434Z,12.99
2022-10-20T03:50:37.854Z,12.94
2022-10-20T03:52:09.375Z,12.91
2022-10-20T03:53:40.920Z,12.88
2022-10-20T03:55:12.451Z,12.85
2022-10-20T03:56:44.048Z,12.79
2022-10-20T03:58:15.672Z,12.70
2022-10-20T03:59:47.159Z,12.61
2022-10-20T04:01:20.863Z,12.53
2022-10-20T04:02:53.372Z,12.43
2022-10-20T04:04:24.958Z,12.38
2022-10-20T04:05:56.440Z,12.37
2022-10-20T04:07:28.057Z,12.36
2022-10-20T04:08:59.716Z,12.35
2022-10-20T04:10:31.342Z,12.33
2022-10-20T04:12:02.843Z,12.34
2022-10-20T04:13:34.572Z,12.29
2022-10-20T04:15:06.634Z,12.27
2022-10-20T04:16:38.230Z,12.24
2022-10-20T04:18:09.896Z,12.19
2022-10-20T04:19:41.495Z,12.17
2022-10-20T04:21:13.191Z,12.19
2022-10-20T04:22:44.815Z,12.23
2022-10-20T04:24:16.459Z,12.22
2022-10-20T04:25:48.817Z,12.21
2022-10-20T04:27:20.440Z,12.18
2022-10-20T04:28:51.954Z,12.14
2022-10-20T04:30:23.618Z,12.11
2022-10-20T04:31:55.251Z,12.11
2022-10-20T04:33:26.705Z,12.09
2022-10-20T04:34:58.315Z,12.08
2022-10-20T04:36:30.818Z,12.02
2022-10-20T04:38:02.613Z,12.04
2022-10-20T04:39:34.232Z,12.00
2022-10-20T04:41:06.199Z,11.97
2022-10-20T04:42:38.000Z,11.97
2022-10-20T04:44:10.174Z,11.96
2022-10-20T04:45:42.100Z,11.91
2022-10-20T04:47:13.683Z,11.81
2022-10-20T04:48:45.371Z,11.74
2022-10-20T04:50:16.925Z,11.72
2022-10-20T04:51:48.589Z,11.67
2022-10-20T04:53:20.190Z,11.65
2022-10-20T04:54:51.812Z,11.61
2022-10-20T04:56:23.486Z,11.55
2022-10-20T04:57:55.207Z,11.53
2022-10-20T04:59:26.889Z,11.54
2022-10-20T05:01:02.311Z,11.54
2022-10-20T05:02:33.806Z,11.54
2022-10-20T05:04:05.344Z,11.54
2022-10-20T05:05:36.997Z,11.55
2022-10-20T05:07:08.587Z,11.59
2022-10-20T05:08:40.673Z,11.60
2022-10-20T05:10:12.163Z,11.60
2022-10-20T05:11:44.004Z,11.64
2022-10-20T05:13:15.636Z,11.73
2022-10-20T05:14:47.206Z,11.82
2022-10-20T05:16:19.095Z,11.87
2022-10-20T05:17:50.625Z,11.94
2022-10-20T05:19:22.296Z,11.98
2022-10-20T05:21:10.060Z,12.03
2022-10-20T05:22:41.971Z,12.10
2022-10-20T05:24:16.877Z,12.17
2022-10-20T05:25:51.779Z,12.23
2022-10-20T05:27:23.304Z,12.32
2022-10-20T05:28:54.957Z,12.42
2022-10-20T05:30:26.683Z,12.50
2022-10-20T05:31:58.245Z,12.61
2022-10-20T05:33:29.829Z,12.70
2022-10-20T05:35:01.416Z,12.85
2022-10-20T05:36:33.243Z,12.98
2022-10-20T05:38:04.829Z,13.10
2022-10-20T05:39:36.393Z,13.27
2022-10-20T05:41:08.178Z,13.38
2022-10-20T05:42:39.765Z,13.52
2022-10-20T05:44:11.636Z,13.65
2022-10-20T05:45:43.163Z,13.77
2022-10-20T05:47:14.657Z,13.90
2022-10-20T05:48:46.393Z,14.01
2022-10-20T05:50:18.107Z,14.14
2022-10-20T05:51:50.014Z,14.25
2022-10-20T05:53:21.612Z,14.35
2022-10-20T05:54:53.319Z,14.46
2022-10-20T05:56:25.257Z,14.57
2022-10-20T05:57:56.870Z,14.67
2022-10-20T05:59:28.459Z,14.78
2022-10-20T06:01:10.131Z,14.89
2022-10-20T06:02:41.873Z,15.03
2022-10-20T06:04:20.124Z,15.16
2022-10-20T06:05:56.881Z,15.24
2022-10-20T06:07:28.427Z,15.38
2022-10-20T06:09:00.521Z,15.48
2022-10-20T06:10:32.163Z,15.56
2022-10-20T06:12:04.404Z,15.68
2022-10-20T06:13:36.025Z,15.78
2022-10-20T06:15:08.466Z,15.85
2022-10-20T06:16:40.391Z,15.97
2022-10-20T06:18:11.998Z,16.07
2022-10-20T06:19:43.595Z,16.17
2022-10-20T06:21:25.240Z,16.24
2022-10-20T06:22:56.882Z,16.31
2022-10-20T06:24:28.878Z,16.40
2022-10-20T06:26:04.083Z,16.47
2022-10-20T06:27:36.033Z,16.55
2022-10-20T06:29:08.817Z,16.62
2022-10-20T06:30:40.417Z,16.71
2022-10-20T06:32:11.913Z,16.74
2022-10-20T06:33:44.074Z,16.84
2022-10-20T06:35:16.317Z,16.98
2022-10-20T06:36:48.049Z,17.05
2022-10-20T06:38:19.751Z,17.12
2022-10-20T06:39:51.745Z,17.12
2022-10-20T06:41:23.695Z,17.05
2022-10-20T06:44:32.109Z,17.11
2022-10-20T06:46:04.597Z,17.22
2022-10-20T06:47:36.437Z,17.27
2022-10-20T06:49:08.285Z,17.29
2022-10-20T06:50:39.876Z,17.37
2022-10-20T06:52:12.080Z,17.46
2022-10-20T06:53:46.754Z,17.46
2022-10-20T06:55:18.533Z,17.42
2022-10-20T06:56:50.068Z,17.52
2022-10-20T06:58:21.676Z,17.63
2022-10-20T06:59:53.263Z,17.77
2022-10-20T07:01:28.289Z,17.74
2022-10-20T07:02:59.869Z,17.73
2022-10-20T07:04:31.396Z,17.86
2022-10-20T07:06:03.248Z,18.00
2022-10-20T07:09:12.863Z,18.05
2022-10-20T07:10:45.128Z,18.09
2022-10-20T07:12:16.637Z,18.11
2022-10-20T07:13:49.439Z,18.12
2022-10-20T07:15:21.110Z,18.08
2022-10-20T07:16:52.631Z,18.14
2022-10-20T07:18:24.703Z,18.22
2022-10-20T07:19:57.275Z,18.37
2022-10-20T07:21:32.472Z,18.40
2022-10-20T07:23:07.581Z,18.49
2022-10-20T07:24:39.171Z,18.68
2022-10-20T07:26:20.715Z,18.82
2022-10-20T07:27:52.324Z,18.89
2022-10-20T07:29:24.032Z,18.94
2022-10-20T07:30:55.942Z,18.95
2022-10-20T07:32:27.617Z,19.04
2022-10-20T07:34:07.082Z,19.10
2022-10-20T07:35:45.328Z,19.23
2022-10-20T07:37:17.236Z,19.31
2022-10-20T07:38:49.104Z,19.26
2022-10-20T07:40:21.366Z,19.22
2022-10-20T07:41:53.410Z,19.31
2022-10-20T07:43:25.230Z,19.34
2022-10-20T07:44:56.839Z,19.41
2022-10-20T07:46:28.857Z,19.45
2022-10-20T07:48:00.481Z,19.37
2022-10-20T07:49:43.969Z,19.31
2022-10-20T07:51:16.168Z,19.44
2022-10-20T07:52:52.532Z,19.57
2022-10-20T07:54:24.462Z,19.54
2022-10-20T07:55:56.447Z,19.65
2022-10-20T07:57:28.596Z,19.71
2022-10-20T07:59:00.155Z,19.64
2022-10-20T08:00:32.373Z,19.57
2022-10-20T08:02:04.123Z,19.65
2022-10-20T08:03:35.911Z,19.73
2022-10-20T08:05:07.911Z,19.80
2022-10-20T08:06:40.236Z,19.88
2022-10-20T08:08:11.947Z,19.89
2022-10-20T08:09:46.546Z,19.96
2022-10-20T08:11:18.401Z,20.03
2022-10-20T08:12:50.273Z,20.13
2022-10-20T08:14:22.385Z,20.18
2022-10-20T08:15:54.596Z,20.18
2022-10-20T08:17:27.277Z,20.17
2022-10-20T08:20:45.313Z,20.20
2022-10-20T08:22:19.386Z,20.28
2022-10-20T08:23:51.809Z,20.47
2022-10-20T08:25:24.116Z,20.59
2022-10-20T08:26:55.863Z,20.72
2022-10-20T08:28:27.569Z,20.79
2022-10-20T08:30:06.282Z,20.87
2022-10-20T08:31:51.335Z,20.91
2022-10-20T08:33:23.231Z,20.87
2022-10-20T08:34:54.740Z,20.95
2022-10-20T08:36:28.383Z,21.05
2022-10-20T08:38:00.056Z,21.09
2022-10-20T08:39:32.048Z,21.12
2022-10-20T08:41:04.297Z,21.13
2022-10-20T08:42:39.028Z,21.21
2022-10-20T08:44:11.838Z,21.25
2022-10-20T08:45:43.498Z,21.20
2022-10-20T08:47:17.467Z,21.36
2022-10-20T08:48:48.988Z,21.55
2022-10-20T08:50:21.578Z,21.62
2022-10-20T08:51:53.269Z,21.67
2022-10-20T08:53:25.013Z,21.71
2022-10-20T08:54:56.938Z,21.57
2022-10-20T08:56:29.591Z,21.50
2022-10-20T08:58:07.567Z,21.53
2022-10-20T08:59:39.991Z,21.60
2022-10-20T09:01:17.535Z,21.59
2022-10-20T09:02:49.524Z,21.61
2022-10-20T09:04:22.312Z,21.71
2022-10-20T09:06:09.872Z,21.78
2022-10-20T09:07:41.364Z,21.84
2022-10-20T09:09:16.869Z,21.94
2022-10-20T09:10:49.548Z,22.01
2022-10-20T09:12:21.285Z,22.07
2022-10-20T09:13:53.466Z,22.15
2022-10-20T09:15:26.948Z,22.15
2022-10-20T09:17:00.815Z,22.19
2022-10-20T09:18:32.874Z,22.18
2022-10-20T09:20:04.617Z,22.27
2022-10-20T09:21:36.198Z,22.26
2022-10-20T09:23:35.300Z,22.24
2022-10-20T09:25:04.674Z,22.30
2022-10-20T09:27:11.370Z,22.39
2022-10-20T09:28:42.964Z,22.56
2022-10-20T09:30:34.333Z,22.62
2022-10-20T09:32:41.272Z,22.66
2022-10-20T09:34:24.205Z,22.75
2022-10-20T09:35:58.133Z,22.83
2022-10-20T09:37:30.140Z,22.85
2022-10-20T09:39:01.883Z,22.84
2022-10-20T09:40:33.983Z,22.79
2022-10-20T09:42:07.484Z,22.81
2022-10-20T09:43:48.538Z,22.88
2022-10-20T09:45:23.874Z,22.97
2022-10-20T09:46:55.520Z,23.01
2022-10-20T09:48:34.655Z,23.09
2022-10-20T09:50:06.499Z,23.16
2022-10-20T09:51:37.958Z,23.19
2022-10-20T09:53:16.053Z,23.26
2022-10-20T09:54:48.447Z,23.12
2022-10-20T09:56:29.279Z,23.09
2022-10-20T09:58:02.733Z,23.08
2022-10-20T09:59:36.074Z,23.14
2022-10-20T10:01:16.949Z,23.17
2022-10-20T10:02:49.431Z,23.15
2022-10-20T10:04:50.357Z,23.27
2022-10-20T10:06:27.109Z,23.39
2022-10-20T10:08:01.244Z,23.49
2022-10-20T10:09:36.731Z,23.63
2022-10-20T10:11:17.896Z,23.68
2022-10-20T10:12:52.855Z,23.69
2022-10-20T10:14:24.533Z,23.74
2022-10-20T10:16:00.572Z,23.84
2022-10-20T10:17:36.130Z,23.85
2022-10-20T10:19:07.957Z,23.93
2022-10-20T10:20:39.704Z,24.02
2022-10-20T10:22:11.981Z,24.18
2022-10-20T10:23:56.389Z,24.27
2022-10-20T10:25:28.167Z,24.31
2022-10-20T10:27:00.077Z,24.35
2022-10-20T10:28:34.574Z,24.40
2022-10-20T10:30:24.298Z,24.37
2022-10-20T10:31:59.706Z,24.51
2022-10-20T10:33:33.302Z,24.66
2022-10-20T10:35:25.279Z,24.78
2022-10-20T10:36:56.891Z,24.94
2022-10-20T10:38:29.013Z,25.02
2022-10-20T10:40:01.953Z,25.07
2022-10-20T10:41:42.469Z,25.08
2022-10-20T10:43:16.882Z,25.06
2022-10-20T10:45:03.408Z,25.18
2022-10-20T10:46:41.624Z,25.27
2022-10-20T10:48:23.061Z,25.26
2022-10-20T10:49:54.621Z,25.32
2022-10-20T10:51:26.206Z,25.31
2022-10-20T10:53:07.459Z,25.33
2022-10-20T10:54:42.691Z,25.39
2022-10-20T10:56:19.907Z,25.42
2022-10-20T10:58:06.946Z,25.47
2022-10-20T10:59:40.741Z,25.55
2022-10-20T11:01:19.162Z,25.62
2022-10-20T11:03:23.226Z,25.78
2022-10-20T11:05:04.043Z,25.83
2022-10-20T11:06:38.545Z,25.67
2022-10-20T11:08:16.175Z,25.59
2022-10-20T11:09:47.725Z,25.64
2022-10-20T11:11:25.102Z,25.74
2022-10-20T11:13:15.106Z,25.79
2022-10-20T11:14:52.834Z,25.85
2022-10-20T11:16:37.775Z,25.92
2022-10-20T11:18:19.502Z,26.05
2022-10-20T11:19:51.691Z,26.11
2022-10-20T11:21:29.054Z,26.22
2022-10-20T11:23:00.591Z,26.25
2022-10-20T11:24:51.270Z,26.30
2022-10-20T11:26:25.450Z,26.21
2022-10-20T11:27:59.894Z,26.23
2022-10-20T11:29:42.466Z,26.25
2022-10-20T11:31:34.266Z,26.27
2022-10-20T11:33:24.488Z,26.21
2022-10-20T11:35:03.020Z,26.15
2022-10-20T11:36:39.754Z,26.04
2022-10-20T11:38:11.298Z,25.85
2022-10-20T11:39:43.369Z,25.82
2022-10-20T11:41:20.855Z,25.79
2022-10-20T11:43:11.263Z,25.80
2022-10-20T11:44:42.959Z,25.88
2022-10-20T11:46:16.093Z,25.95
2022-10-20T11:47:47.746Z,25.93
2022-10-20T11:49:19.561Z,26.00
2022-10-20T11:50:56.032Z,26.06
2022-10-20T11:52:27.805Z,26.12
2022-10-20T11:54:06.184Z,26.25
2022-10-20T11:55:46.772Z,26.25
2022-10-20T11:57:21.315Z,26.19
2022-10-20T11:58:52.854Z,26.16
2022-10-20T12:00:30.794Z,26.18
2022-10-20T12:02:05.099Z,26.28
2022-10-20T12:03:39.935Z,26.25
2022-10-20T12:05:16.880Z,26.19
2022-10-20T12:06:48.592Z,26.23
2022-10-20T12:08:29.920Z,26.28
2022-10-20T12:10:11.861Z,26.34
2022-10-20T12:12:02.729Z,26.38
2022-10-20T12:13:39.850Z,26.38
2022-10-20T12:15:24.659Z,26.35
2022-10-20T12:16:59.330Z,26.39
2022-10-20T12:18:31.662Z,26.46
2022-10-20T12:20:21.341Z,26.39
2022-10-20T12:22:00.039Z,26.36
2022-10-20T12:23:43.571Z,26.30
2022-10-20T12:25:18.006Z,26.19
2022-10-20T12:27:06.420Z,26.20
2022-10-20T12:28:41.708Z,26.16
2022-10-20T12:30:32.209Z,26.07
2022-10-20T12:32:24.128Z,26.13
2022-10-20T12:33:59.491Z,26.21
2022-10-20T12:35:31.860Z,26.15
2022-10-20T12:37:15.931Z,26.02
2022-10-20T12:38:51.391Z,25.97
2022-10-20T12:40:26.832Z,25.94
2022-10-20T12:42:01.659Z,26.01
2022-10-20T12:43:34.886Z,26.10
2022-10-20T12:45:06.790Z,26.10
2022-10-20T12:46:41.083Z,25.99
2022-10-20T12:48:20.032Z,25.98
2022-10-20T12:50:01.364Z,25.86
2022-10-20T12:51:34.653Z,25.95
2022-10-20T12:53:20.258Z,26.00
2022-10-20T12:54:56.978Z,25.87
2022-10-20T12:56:34.804Z,25.82
2022-10-20T12:58:13.308Z,25.67
2022-10-20T12:59:45.248Z,25.69
2022-10-20T13:01:16.901Z,25.67
2022-10-20T13:02:55.085Z,25.66
2022-10-20T13:04:46.599Z,25.64
2022-10-20T13:06:24.428Z,25.68
2022-10-20T13:08:00.244Z,25.76
2022-10-20T13:09:31.982Z,25.79
2022-10-20T13:11:22.965Z,25.66
2022-10-20T13:13:03.978Z,25.58
2022-10-20T13:14:36.348Z,25.32
2022-10-20T13:16:11.740Z,25.23
2022-10-20T13:17:53.679Z,25.18
2022-10-20T13:19:30.131Z,25.18
2022-10-20T13:21:06.826Z,25.24
2022-10-20T13:22:48.004Z,25.21
2022-10-20T13:24:25.518Z,25.20
2022-10-20T13:26:00.950Z,25.27
2022-10-20T13:27:32.502Z,25.37
2022-10-20T13:29:04.892Z,25.28
2022-10-20T13:30:36.496Z,25.24
2022-10-20T13:32:20.168Z,25.19
2022-10-20T13:34:06.201Z,25.05
2022-10-20T13:35:53.979Z,24.95
2022-10-20T13:37:29.251Z,24.88
2022-10-20T13:39:03.096Z,24.89
2022-10-20T13:40:43.916Z,24.85
2022-10-20T13:42:28.886Z,24.84
2022-10-20T13:44:04.225Z,24.84
2022-10-20T13:45:53.207Z,24.80
2022-10-20T13:47:36.007Z,24.79
2022-10-20T13:49:40.546Z,24.70
2022-10-20T13:51:20.488Z,24.63
2022-10-20T13:52:57.782Z,24.66
2022-10-20T13:54:30.567Z,24.71
2022-10-20T13:56:03.319Z,24.60
2022-10-20T13:57:35.541Z,24.51
2022-10-20T13:59:18.854Z,24.49
2022-10-20T14:01:04.477Z,24.45
2022-10-20T14:02:36.752Z,24.41
2022-10-20T14:04:29.276Z,24.33
2022-10-20T14:06:01.400Z,24.25
2022-10-20T14:07:40.542Z,24.16
2022-10-20T14:09:15.149Z,23.99
2022-10-20T14:10:49.721Z,23.82
2022-10-20T14:12:23.304Z,23.74
2022-10-20T14:13:55.189Z,23.67
2022-10-20T14:15:30.634Z,23.60
2022-10-20T14:17:05.700Z,23.54
2022-10-20T14:18:39.869Z,23.50
2022-10-20T14:20:20.902Z,23.44
2022-10-20T14:21:54.610Z,23.36
2022-10-20T14:23:26.478Z,23.24
2022-10-20T14:24:59.722Z,23.13
2022-10-20T14:26:31.561Z,23.02
2022-10-20T14:28:06.583Z,22.99
2022-10-20T14:29:39.727Z,22.92
2022-10-20T14:31:11.842Z,22.89
2022-10-20T14:32:43.848Z,22.74
2022-10-20T14:34:20.146Z,22.69
2022-10-20T14:35:52.644Z,22.62
2022-10-20T14:37:53.917Z,22.51
2022-10-20T14:39:45.898Z,22.39
2022-10-20T14:41:24.874Z,22.28
2022-10-20T14:43:03.848Z,22.18
2022-10-20T14:44:36.488Z,22.09
2022-10-20T14:46:09.346Z,22.07
2022-10-20T14:47:41.377Z,22.02
2022-10-20T14:49:16.992Z,21.99
2022-10-20T14:50:48.604Z,21.94
2022-10-20T14:52:23.878Z,21.86
2022-10-20T14:54:15.199Z,21.80
2022-10-20T14:55:47.084Z,21.68
2022-10-20T14:57:19.298Z,21.62
2022-10-20T14:58:57.805Z,21.52
2022-10-20T15:00:30.969Z,21.44
2022-10-20T15:02:09.752Z,21.36
2022-10-20T15:03:41.931Z,21.26
2022-10-20T15:05:23.531Z,21.16
2022-10-20T15:07:18.407Z,21.06
2022-10-20T15:08:54.059Z,20.97
2022-10-20T15:10:26.151Z,20.86
2022-10-20T15:11:57.804Z,20.79
2022-10-20T15:13:30.278Z,20.72
2022-10-20T15:15:06.276Z,20.67
2022-10-20T15:16:42.001Z,20.63
2022-10-20T15:18:18.519Z,20.58
2022-10-20T15:19:50.159Z,20.53
2022-10-20T15:21:22.322Z,20.46
2022-10-20T15:22:55.414Z,20.40
2022-10-20T15:24:27.523Z,20.30
2022-10-20T15:26:25.236Z,20.23
2022-10-20T15:27:57.453Z,20.11
2022-10-20T15:29:29.582Z,20.03
2022-10-20T15:31:01.596Z,19.93
2022-10-20T15:32:33.370Z,19.84
2022-10-20T15:34:05.203Z,19.76
2022-10-20T15:35:36.792Z,19.62
2022-10-20T15:37:09.226Z,19.50
2022-10-20T15:38:41.393Z,19.38
2022-10-20T15:40:13.015Z,19.29
2022-10-20T15:41:45.671Z,19.19
2022-10-20T15:43:18.781Z,19.10
2022-10-20T15:44:51.045Z,18.99
2022-10-20T15:46:22.705Z,18.85
2022-10-20T15:47:54.425Z,18.73
2022-10-20T15:49:26.215Z,18.66
2022-10-20T15:50:59.349Z,18.54
2022-10-20T15:52:30.951Z,18.48
2022-10-20T15:54:02.672Z,18.38
2022-10-20T15:55:35.030Z,18.30
2022-10-20T15:57:06.700Z,18.21
2022-10-20T15:58:39.794Z,18.09
2022-10-20T16:00:12.054Z,18.02
2022-10-20T16:01:43.794Z,17.88
2022-10-20T16:03:18.821Z,17.77
2022-10-20T16:04:50.464Z,17.70
2022-10-20T16:06:22.088Z,17.64
2022-10-20T16:07:54.361Z,17.55
2022-10-20T16:09:26.112Z,17.49
2022-10-20T16:10:58.002Z,17.46
2022-10-20T16:12:29.649Z,17.41
2022-10-20T16:14:01.346Z,17.36
2022-10-20T16:15:32.995Z,17.27
2022-10-20T16:17:04.986Z,17.17
2022-10-20T16:18:36.903Z,17.12
2022-10-20T16:20:08.974Z,17.02
2022-10-20T16:21:41.409Z,16.92
2022-10-20T16:23:13.123Z,16.84
2022-10-20T16:24:44.690Z,16.81
2022-10-20T16:26:16.687Z,16.77
2022-10-20T16:27:48.452Z,16.72
2022-10-20T16:29:20.109Z,16.69
2022-10-20T16:30:51.736Z,16.64
2022-10-20T16:32:23.364Z,16.57
2022-10-20T16:33:55.557Z,16.52
2022-10-20T16:35:27.280Z,16.49
2022-10-20T16:36:58.857Z,16.46
2022-10-20T16:38:30.556Z,16.42
2022-10-20T16:40:02.260Z,16.35
2022-10-20T16:41:33.980Z,16.25
2022-10-20T16:43:05.602Z,16.22
2022-10-20T16:44:37.463Z,16.19
2022-10-20T16:46:09.918Z,16.13
2022-10-20T16:47:41.613Z,16.06
2022-10-20T16:49:13.200Z,16.00
2022-10-20T16:50:44.913Z,15.92
2022-10-20T16:52:16.527Z,15.90
2022-10-20T16:53:48.484Z,15.90
2022-10-20T16:55:20.066Z,15.88
2022-10-20T16:56:51.763Z,15.82
2022-10-20T16:58:23.857Z,15.77
2022-10-20T16:59:55.539Z,15.73
2022-10-20T17:01:27.499Z,15.66
2022-10-20T17:02:59.163Z,15.58
2022-10-20T17:04:31.350Z,15.54
2022-10-20T17:06:05.458Z,15.45
2022-10-20T17:07:37.228Z,15.40
2022-10-20T17:09:09.500Z,15.29
2022-10-20T17:10:42.970Z,15.21
2022-10-20T17:12:14.422Z,15.17
2022-10-20T17:13:46.101Z,15.06
2022-10-20T17:15:17.712Z,15.06
2022-10-20T17:16:49.411Z,15.06
2022-10-20T17:18:21.305Z,15.04
2022-10-20T17:19:52.804Z,15.00
2022-10-20T17:21:24.506Z,14.96
2022-10-20T17:22:56.170Z,14.96
2022-10-20T17:24:28.136Z,14.95
2022-10-20T17:26:01.130Z,14.95
2022-10-20T17:27:32.811Z,14.96
2022-10-20T17:29:04.516Z,14.98
2022-10-20T17:30:40.174Z,15.04
2022-10-20T17:32:14.423Z,14.98
2022-10-20T17:33:49.514Z,14.93
2022-10-20T17:35:21.267Z,14.89
2022-10-20T17:36:52.772Z,14.86
2022-10-20T17:38:24.534Z,14.83
2022-10-20T17:39:56.092Z,14.78
2022-10-20T17:41:28.030Z,14.73
2022-10-20T17:43:00.056Z,14.64
2022-10-20T17:44:31.713Z,14.58
2022-10-20T17:46:11.072Z,14.55
2022-10-20T17:47:42.701Z,14.53
2022-10-20T17:49:14.881Z,14.51
2022-10-20T17:50:46.675Z,14.49
2022-10-20T17:52:18.264Z,14.45
2022-10-20T17:53:50.494Z,14.38
2022-10-20T17:55:22.581Z,14.33
2022-10-20T17:56:54.307Z,14.30
2022-10-20T17:58:26.190Z,14.23
2022-10-20T17:59:59.354Z,14.12
2022-10-20T18:01:34.030Z,14.04
2022-10-20T18:03:06.225Z,14.02
2022-10-20T18:04:38.928Z,13.97
2022-10-20T18:06:11.594Z,13.99
2022-10-20T18:07:43.332Z,13.98
2022-10-20T18:09:15.816Z,13.97
2022-10-20T18:10:49.188Z,13.95
2022-10-20T18:12:20.762Z,13.93
2022-10-20T18:13:52.430Z,13.88
2022-10-20T18:15:24.719Z,13.88
2022-10-20T18:16:56.599Z,13.87
2022-10-20T18:18:28.158Z,13.81
2022-10-20T18:20:00.319Z,13.76
2022-10-20T18:21:31.996Z,13.64
2022-10-20T18:23:03.564Z,13.59
2022-10-20T18:24:36.739Z,13.52
2022-10-20T18:26:18.200Z,13.47
2022-10-20T18:27:49.811Z,13.51
2022-10-20T18:29:21.929Z,13.52
2022-10-20T18:30:53.595Z,13.55
2022-10-20T18:32:25.716Z,13.55
2022-10-20T18:34:02.539Z,13.49
2022-10-20T18:35:38.592Z,13.44
2022-10-20T18:37:10.308Z,13.45
2022-10-20T18:38:42.418Z,13.42
2022-10-20T18:40:13.942Z,13.43
2022-10-20T18:41:46.624Z,13.37
2022-10-20T18:43:18.415Z,13.37
2022-10-20T18:44:49.950Z,13.29
2022-10-20T18:46:21.559Z,13.25
2022-10-20T18:47:53.208Z,13.21
2022-10-20T18:49:24.892Z,13.22
2022-10-20T18:50:56.962Z,13.15
2022-10-20T18:52:28.524Z,13.14
2022-10-20T18:54:00.229Z,13.11
2022-10-20T18:55:31.807Z,13.13
2022-10-20T18:57:03.933Z,13.13
2022-10-20T18:58:38.305Z,13.08
2022-10-20T19:00:10.545Z,13.06
2022-10-20T19:01:42.252Z,13.07
2022-10-20T19:03:14.162Z,13.11
2022-10-20T19:04:46.259Z,13.09
2022-10-20T19:06:17.992Z,13.03
2022-10-20T19:07:49.606Z,13.05
2022-10-20T19:09:21.218Z,13.02
2022-10-20T19:10:52.843Z,13.01
2022-10-20T19:12:24.429Z,13.02
2022-10-20T19:13:56.197Z,13.02
2022-10-20T19:15:27.894Z,13.07
2022-10-20T19:16:59.817Z,13.05
2022-10-20T19:18:31.389Z,13.02
2022-10-20T19:20:02.932Z,13.01
2022-10-20T19:21:34.767Z,12.98
2022-10-20T19:23:06.479Z,12.98
2022-10-20T19:24:40.737Z,12.99
2022-10-20T19:26:13.605Z,12.97
2022-10-20T19:27:45.227Z,12.97
2022-10-20T19:29:17.157Z,12.98
2022-10-20T19:30:49.255Z,13.02
2022-10-20T19:32:20.847Z,13.02
2022-10-20T19:33:53.632Z,13.06
2022-10-20T19:35:25.287Z,13.09
2022-10-20T19:36:57.015Z,13.09
2022-10-20T19:38:28.957Z,13.06
2022-10-20T19:40:00.573Z,13.02
2022-10-20T19:41:32.422Z,13.02
2022-10-20T19:43:03.935Z,13.01
2022-10-20T19:44:35.712Z,13.00
2022-10-20T19:46:07.862Z,12.96
2022-10-20T19:47:39.487Z,12.91
2022-10-20T19:49:11.792Z,12.92
2022-10-20T19:50:43.861Z,12.89
2022-10-20T19:52:15.611Z,12.86
2022-10-20T19:53:47.325Z,12.80
2022-10-20T19:55:18.935Z,12.72
2022-10-20T19:56:50.521Z,12.65
2022-10-20T19:58:22.487Z,12.62
2022-10-20T19:59:54.079Z,12.62
2022-10-20T20:01:25.710Z,12.60
2022-10-20T20:02:57.592Z,12.57
2022-10-20T20:04:29.524Z,12.57
2022-10-20T20:06:01.867Z,12.52
2022-10-20T20:07:33.541Z,12.48
2022-10-20T20:09:06.604Z,12.46
2022-10-20T20:10:38.829Z,12.44
2022-10-20T20:12:10.499Z,12.39
2022-10-20T20:13:42.123Z,12.33
2022-10-20T20:15:13.811Z,12.30
2022-10-20T20:16:46.399Z,12.29
2022-10-20T20:18:18.699Z,12.26
2022-10-20T20:19:50.360Z,12.24